地図

経路データ

SID SEASON NUMBER BASIN SUBBASIN NAME ISO_TIME NATURE LAT LON WMO_WIND WMO_PRES WMO_AGENCY TRACK_TYPE DIST2LAND LANDFALL IFLAG USA_AGENCY USA_ATCF_ID USA_LAT USA_LON USA_RECORD USA_STATUS USA_WIND USA_PRES USA_SSHS USA_R34_NE USA_R34_SE USA_R34_SW USA_R34_NW USA_R50_NE USA_R50_SE USA_R50_SW USA_R50_NW USA_R64_NE USA_R64_SE USA_R64_SW USA_R64_NW USA_POCI USA_ROCI USA_RMW USA_EYE TOKYO_LAT TOKYO_LON TOKYO_GRADE TOKYO_WIND TOKYO_PRES TOKYO_R50_DIR TOKYO_R50_LONG TOKYO_R50_SHORT TOKYO_R30_DIR TOKYO_R30_LONG TOKYO_R30_SHORT TOKYO_LAND CMA_LAT CMA_LON CMA_CAT CMA_WIND CMA_PRES HKO_LAT HKO_LON HKO_CAT HKO_WIND HKO_PRES NEWDELHI_LAT NEWDELHI_LON NEWDELHI_GRADE NEWDELHI_WIND NEWDELHI_PRES NEWDELHI_CI NEWDELHI_DP NEWDELHI_POCI REUNION_LAT REUNION_LON REUNION_TYPE REUNION_WIND REUNION_PRES REUNION_TNUM REUNION_CI REUNION_RMW REUNION_R34_NE REUNION_R34_SE REUNION_R34_SW REUNION_R34_NW REUNION_R50_NE REUNION_R50_SE REUNION_R50_SW REUNION_R50_NW REUNION_R64_NE REUNION_R64_SE REUNION_R64_SW REUNION_R64_NW BOM_LAT BOM_LON BOM_TYPE BOM_WIND BOM_PRES BOM_TNUM BOM_CI BOM_RMW BOM_R34_NE BOM_R34_SE BOM_R34_SW BOM_R34_NW BOM_R50_NE BOM_R50_SE BOM_R50_SW BOM_R50_NW BOM_R64_NE BOM_R64_SE BOM_R64_SW BOM_R64_NW BOM_ROCI BOM_POCI BOM_EYE BOM_POS_METHOD BOM_PRES_METHOD NADI_LAT NADI_LON NADI_CAT NADI_WIND NADI_PRES WELLINGTON_LAT WELLINGTON_LON WELLINGTON_WIND WELLINGTON_PRES DS824_LAT DS824_LON DS824_STAGE DS824_WIND DS824_PRES TD9636_LAT TD9636_LON TD9636_STAGE TD9636_WIND TD9636_PRES TD9635_LAT TD9635_LON TD9635_WIND TD9635_PRES TD9635_ROCI NEUMANN_LAT NEUMANN_LON NEUMANN_CLASS NEUMANN_WIND NEUMANN_PRES MLC_LAT MLC_LON MLC_CLASS MLC_WIND MLC_PRES USA_GUST BOM_GUST BOM_GUST_PER REUNION_GUST REUNION_GUST_PER USA_SEAHGT USA_SEARAD_NE USA_SEARAD_SE USA_SEARAD_SW USA_SEARAD_NW STORM_SPEED STORM_DIR
1984145N11056 1984 34 NI AS NOT_NAMED 1984-05-23 12:00:00 NR 10.7000 56.2000 main 282 266 O_________O___ jtwc_io IO011984 10.7000 56.2000 20 -1 10.7000 56.2000 1 20 3 315
1984145N11056 1984 34 NI AS NOT_NAMED 1984-05-23 15:00:00 NR 10.8000 56.0907 main 266 250 P_________P___ IO011984 10.8000 56.1125 20 -1 10.8001 56.0688 1 20 3 311
1984145N11056 1984 34 NI AS NOT_NAMED 1984-05-23 18:00:00 NR 10.9000 55.9700 main 250 228 O_________P___ jtwc_io IO011984 10.9000 56.0000 20 -1 10.9001 55.9401 1 20 3 308
1984145N11056 1984 34 NI AS NOT_NAMED 1984-05-23 21:00:00 NR 11.0000 55.8332 main 228 212 P_________P___ IO011984 11.0000 55.8500 20 -1 11.0000 55.8163 1 20 3 307
1984145N11056 1984 34 NI AS NOT_NAMED 1984-05-24 00:00:00 NR 11.1000 55.7000 main 212 197 O_________O___ jtwc_io IO011984 11.1000 55.7000 20 -1 11.1000 55.7000 1 20 3 310
1984145N11056 1984 34 NI AS NOT_NAMED 1984-05-24 03:00:00 NR 11.2000 55.5926 main 197 181 P_________P___ IO011984 11.2000 55.5925 20 -1 11.2000 55.5928 1 20 3 315
1984145N11056 1984 34 NI AS NOT_NAMED 1984-05-24 06:00:00 NR 11.3000 55.4962 main 181 166 O_________P___ jtwc_io IO011984 11.3000 55.5000 20 -1 11.3000 55.4925 1 20 3 316
1984145N11056 1984 34 NI AS NOT_NAMED 1984-05-24 09:00:00 NR 11.4000 55.3942 main 166 150 P_________P___ IO011984 11.4000 55.3925 20 -1 11.4000 55.3959 1 20 3 316
1984145N11056 1984 34 NI AS NOT_NAMED 1984-05-24 12:00:00 NR 11.5000 55.3000 main 150 135 O_________O___ jtwc_io IO011984 11.5000 55.3000 20 -1 11.5000 55.3000 1 20 3 322
1984145N11056 1984 34 NI AS NOT_NAMED 1984-05-24 15:00:00 NR 11.6020 55.2308 main 135 126 P_________P___ IO011984 11.6000 55.2575 22 -1 11.6040 55.2040 1 21 3 325
1984145N11056 1984 34 NI AS NOT_NAMED 1984-05-24 18:00:00 NR 11.7037 55.1537 main 126 104 O_________P___ jtwc_io IO011984 11.7000 55.2000 25 -1 11.7075 55.1075 1 22 3 316
1984145N11056 1984 34 NI AS NOT_NAMED 1984-05-24 21:00:00 NR 11.8036 55.0323 main 104 89 P_________P___ IO011984 11.8000 55.0575 25 -1 11.8072 55.0072 1 23 3 308
1984145N11056 1984 34 NI AS NOT_NAMED 1984-05-25 00:00:00 NR 11.9000 54.9000 main 89 74 O_________O___ jtwc_io IO011984 11.9000 54.9000 25 -1 11.9000 54.9000 1 25 3 310
1984145N11056 1984 34 NI AS NOT_NAMED 1984-05-25 03:00:00 NR 11.9907 54.8012 main 74 60 P_________P___ IO011984 12.0075 54.8000 25 -1 11.9740 54.8024 1 26 3 311
1984145N11056 1984 34 NI AS NOT_NAMED 1984-05-25 06:00:00 NR 12.0712 54.6974 main 60 55 O_________P___ jtwc_io IO011984 12.1000 54.7000 25 -1 12.0424 54.6948 1 27 3 302
1984145N11056 1984 34 NI AS NOT_NAMED 1984-05-25 09:00:00 NR 12.1323 54.5687 main 55 35 P_________P___ IO011984 12.1500 54.5725 27 -1 12.1146 54.5649 1 28 3 294
1984145N11056 1984 34 NI AS NOT_NAMED 1984-05-25 12:00:00 NR 12.2000 54.4000 main 35 15 O_________O___ jtwc_io IO011984 12.2000 54.4000 30 -1 12.2000 54.4000 1 30 4 293
1984145N11056 1984 34 NI AS NOT_NAMED 1984-05-25 15:00:00 NR 12.2978 54.1755 main 15 0 P_________P___ IO011984 12.2850 54.1650 30 -1 12.3107 54.1860 1 31 5 295
1984145N11056 1984 34 NI AS NOT_NAMED 1984-05-25 18:00:00 NR 12.4175 53.9188 main 0 0 O_________P___ jtwc_io IO011984 12.4000 53.9000 30 -1 12.4351 53.9376 1 32 6 297
1984145N11056 1984 34 NI AS NOT_NAMED 1984-05-25 21:00:00 NR 12.5547 53.6564 main 0 0 P_________P___ IO011984 12.5425 53.6425 32 -1 12.5669 53.6703 1 33 6 299
1984145N11056 1984 34 NI AS NOT_NAMED 1984-05-26 00:00:00 NR 12.7000 53.4000 main 11 11 O_________O___ jtwc_io IO011984 12.7000 53.4000 35 0 12.7000 53.4000 2 35 5 303
1984145N11056 1984 34 NI AS NOT_NAMED 1984-05-26 03:00:00 NR 12.8451 53.1990 main 31 31 P_________P___ IO011984 12.8574 53.2075 35 0 12.8327 53.1905 2 36 5 305
1984145N11056 1984 34 NI AS NOT_NAMED 1984-05-26 06:00:00 NR 12.9822 52.9874 main 62 62 O_________P___ jtwc_io IO011984 13.0000 53.0000 35 0 12.9643 52.9748 2 37 5 298
1984145N11056 1984 34 NI AS NOT_NAMED 1984-05-26 09:00:00 NR 13.0944 52.7221 main 93 93 P_________P___ IO011984 13.1000 52.7224 37 0 13.0888 52.7217 2 38 6 291
1984145N11056 1984 34 NI AS NOT_NAMED 1984-05-26 12:00:00 NR 13.2000 52.4000 main 125 125 O_________O___ jtwc_io IO011984 13.2000 52.4000 40 0 13.2000 52.4000 2 40 7 292
1984145N11056 1984 34 NI AS NOT_NAMED 1984-05-26 15:00:00 NR 13.3574 52.0539 main 164 164 P_________P___ IO011984 13.3647 52.1026 40 0 13.3501 52.0052 2 41 8 291
1984145N11056 1984 34 NI AS NOT_NAMED 1984-05-26 18:00:00 NR 13.4885 51.6182 main 190 174 O_________P___ jtwc_io IO011984 13.5000 51.7000 40 0 13.4770 51.5364 2 42 10 281
1984145N11056 1984 34 NI AS NOT_NAMED 1984-05-26 21:00:00 NR 13.5502 51.0510 main 165 147 P_________P___ IO011984 13.5601 51.1027 42 0 13.5404 50.9993 2 43 12 271
1984145N11056 1984 34 NI AS NOT_NAMED 1984-05-27 00:00:00 NR 13.5000 50.4000 main 147 132 O_________O___ jtwc_io IO011984 13.5000 50.4000 45 0 13.5000 50.4000 2 45 13 259
1984145N11056 1984 34 NI AS NOT_NAMED 1984-05-27 03:00:00 NR 13.3092 49.7320 main 132 109 P_________P___ IO011984 13.3024 49.7074 45 0 13.3160 49.7565 2 43 14 250
1984145N11056 1984 34 NI AS NOT_NAMED 1984-05-27 06:00:00 NR 13.0138 49.0293 main 116 114 O_________P___ jtwc_io IO011984 13.0000 49.0000 45 0 13.0276 49.0587 2 42 15 245
1984145N11056 1984 34 NI AS NOT_NAMED 1984-05-27 09:00:00 NR 12.6699 48.3272 main 139 134 P_________P___ IO011984 12.6646 48.3226 42 0 12.6753 48.3317 2 41 16 243
1984145N11056 1984 34 NI AS NOT_NAMED 1984-05-27 12:00:00 NR 12.3000 47.6000 main 134 109 O_________O___ jtwc_io IO011984 12.3000 47.6000 40 0 12.3000 47.6000 2 40 17 245
1984145N11056 1984 34 NI AS NOT_NAMED 1984-05-27 15:00:00 NR 11.9684 46.7583 main 114 89 P_________P___ IO011984 11.9503 46.7275 37 0 11.9865 46.7892 2 38 18 247
1984145N11056 1984 34 NI AS NOT_NAMED 1984-05-27 18:00:00 NR 11.6278 45.9476 main 89 64 O_________P___ jtwc_io IO011984 11.6000 45.9000 35 0 11.6556 45.9953 2 37 16 245
1984145N11056 1984 34 NI AS NOT_NAMED 1984-05-27 21:00:00 NR 11.2807 45.2782 main 70 60 P_________P___ IO011984 11.2648 45.2527 35 0 11.2966 45.3038 2 36 13 237
1984145N11056 1984 34 NI AS NOT_NAMED 1984-05-28 00:00:00 NR 10.9000 44.8000 main 60 22 O_________O___ jtwc_io IO011984 10.9000 44.8000 35 0 10.9000 44.8000 2 35 11 222
1984145N11056 1984 34 NI AS NOT_NAMED 1984-05-28 03:00:00 NR 10.4659 44.5384 main 22 0 P_________P___ IO011984 10.4700 44.5449 32 -1 10.4617 44.5319 2 32 10 204
1984145N11056 1984 34 NI AS NOT_NAMED 1984-05-28 06:00:00 NR 10.0000 44.4000 main 0 O_________O___ jtwc_io IO011984 10.0000 44.4000 30 -1 10.0000 44.4000 1 30 10 197

IBTrACS Databaseについて

本データベースは、米国NOAAが公開する1842年以降の世界の熱帯低気圧のベストトラックデータアーカイブInternational Best Track Archive for Climate Stewardship (IBTrACS)を、ウェブで閲覧しやすい形式に変換したものです。

最終更新日:2021-11-26